Time;durP1;ratioP1;P1;durP2;ratioP2;P2;SDS_P1;SDS_P2;PMS_P1;PMS_P2;Temp;Humidity;BMP_temperature;BMP_pressure;BME280_temperature;BME280_humidity;BME280_pressure;Samples;Min_cycle;Max_cycle;Signal;HPM_P1;HPM_P2
2023/01/05 00:02:22;;;;;;;19.65;3.00;;;9.50;99.90;;;;;;5004071;28;20490;-62
2023/01/05 00:04:48;;;;;;;23.90;4.60;;;9.40;99.90;;;;;;5004848;28;20481;-62
2023/01/05 00:07:13;;;;;;;21.17;3.90;;;8.80;99.90;;;;;;5006021;28;20045;-62
2023/01/05 00:09:39;;;;;;;18.80;3.97;;;8.80;99.90;;;;;;5005412;28;20064;-62
2023/01/05 00:23:05;;;;;;;18.88;3.10;;;8.90;99.90;;;;;;5013830;28;20184;-62
2023/01/05 00:25:35;;;;;;;18.50;3.22;;;8.90;99.90;;;;;;5004759;28;20048;-62
2023/01/05 00:28:01;;;;;;;11.82;2.38;;;9.10;99.90;;;;;;5004423;28;20042;-62
2023/01/05 00:30:42;;;;;;;16.05;3.03;;;8.80;99.90;;;;;;5003137;28;20512;-62
2023/01/05 00:33:10;;;;;;;15.45;3.40;;;9.20;99.90;;;;;;5004845;28;20099;-59
2023/01/05 00:35:37;;;;;;;17.38;3.70;;;8.80;99.90;;;;;;5004021;28;20070;-60
2023/01/05 00:38:04;;;;;;;14.90;2.88;;;8.90;99.90;;;;;;5004616;28;20113;-62
2023/01/05 00:40:30;;;;;;;20.60;3.42;;;8.80;99.90;;;;;;5004163;28;20452;-62
2023/01/05 00:42:56;;;;;;;13.38;2.55;;;8.80;99.90;;;;;;5004427;28;20090;-62
2023/01/05 00:45:21;;;;;;;14.40;3.00;;;9.20;99.90;;;;;;5004190;28;20100;-62
2023/01/05 00:47:48;;;;;;;18.35;3.08;;;9.00;99.90;;;;;;5004937;28;20041;-62
2023/01/05 00:50:16;;;;;;;15.82;2.95;;;9.30;99.90;;;;;;5003532;28;20551;-63
2023/01/05 00:52:42;;;;;;;12.18;2.78;;;9.40;99.90;;;;;;5004387;28;20042;-62
2023/01/05 00:55:08;;;;;;;16.02;3.33;;;8.90;99.90;;;;;;5005100;28;20123;-62
2023/01/05 00:57:34;;;;;;;12.73;2.60;;;8.90;99.90;;;;;;5004721;28;20038;-62
2023/01/05 01:00:01;;;;;;;12.93;2.88;;;9.10;99.90;;;;;;5003962;28;20471;-62
2023/01/05 01:02:27;;;;;;;12.88;3.47;;;9.10;99.90;;;;;;5004207;28;20519;-62
2023/01/05 01:04:52;;;;;;;13.55;3.47;;;8.70;99.90;;;;;;5004760;28;20705;-62
2023/01/05 01:07:18;;;;;;;18.90;3.38;;;8.70;99.90;;;;;;5003492;28;20053;-62
2023/01/05 01:09:44;;;;;;;15.65;3.60;;;9.00;99.90;;;;;;5002618;28;20547;-62
2023/01/05 01:12:09;;;;;;;17.40;3.38;;;9.10;99.90;;;;;;5003765;28;20088;-62
2023/01/05 01:14:36;;;;;;;17.33;3.63;;;9.30;99.90;;;;;;5002864;28;20048;-62
2023/01/05 01:17:01;;;;;;;18.25;4.15;;;8.80;99.90;;;;;;5003529;28;20088;-62
2023/01/05 01:19:27;;;;;;;16.42;4.47;;;9.30;99.90;;;;;;5003439;28;20077;-62
2023/01/05 01:21:53;;;;;;;21.65;4.97;;;8.80;99.90;;;;;;5014528;28;20041;-61
2023/01/05 01:24:24;;;;;;;20.52;4.38;;;8.70;99.90;;;;;;5004979;28;20580;-62
2023/01/05 01:26:51;;;;;;;23.42;4.78;;;8.80;99.90;;;;;;5004779;28;20053;-61
2023/01/05 01:29:17;;;;;;;20.67;4.25;;;8.70;99.90;;;;;;5004996;28;20073;-63
2023/01/05 01:31:45;;;;;;;23.23;4.82;;;8.70;99.90;;;;;;5003930;28;20413;-63
2023/01/05 01:34:11;;;;;;;23.88;4.93;;;8.90;99.90;;;;;;5004964;28;20037;-62
2023/01/05 01:36:37;;;;;;;28.05;5.30;;;8.90;99.90;;;;;;5004948;28;20050;-62
2023/01/05 01:39:03;;;;;;;24.63;5.38;;;9.30;99.90;;;;;;5004828;28;20485;-62
2023/01/05 01:41:28;;;;;;;27.42;5.43;;;8.90;99.90;;;;;;5004084;28;20037;-63
2023/01/05 01:43:55;;;;;;;25.23;4.78;;;8.90;99.90;;;;;;5004968;28;20045;-62
2023/01/05 01:46:23;;;;;;;24.83;4.75;;;9.40;99.90;;;;;;5003745;28;20045;-62
2023/01/05 01:48:53;;;;;;;21.65;4.38;;;9.00;99.90;;;;;;5003846;28;20049;-61
2023/01/05 01:51:43;;;;;;;26.83;5.60;;;9.20;99.90;;;;;;5004074;28;20053;-62
2023/01/05 01:54:14;;;;;;;22.90;4.57;;;9.30;99.90;;;;;;4995280;28;20100;-63
2023/01/05 01:56:48;;;;;;;23.20;4.55;;;9.50;99.90;;;;;;5004561;28;20046;-62
2023/01/05 01:59:16;;;;;;;25.90;4.22;;;9.30;99.90;;;;;;5002965;28;20046;-62
2023/01/05 02:01:41;;;;;;;21.13;3.97;;;9.30;99.90;;;;;;5003133;28;20084;-61
2023/01/05 02:04:08;;;;;;;24.77;4.93;;;9.00;99.90;;;;;;5004322;28;20041;-62
2023/01/05 02:06:35;;;;;;;24.20;4.40;;;9.50;99.90;;;;;;5003996;28;20093;-62
2023/01/05 02:09:01;;;;;;;21.08;4.00;;;9.30;99.90;;;;;;5003344;28;20520;-62
2023/01/05 02:12:18;;;;;;;21.67;4.03;;;8.90;99.90;;;;;;5068230;22;20487;-62
2023/01/05 02:14:49;;;;;;;18.63;4.05;;;9.00;99.90;;;;;;4963507;28;20081;-62
2023/01/05 02:17:32;;;;;;;24.95;4.47;;;9.00;99.90;;;;;;4997513;28;20046;-60
2023/01/05 02:20:04;;;;;;;18.27;4.15;;;9.40;99.90;;;;;;5003653;28;20046;-60
2023/01/05 02:22:50;;;;;;;23.85;4.88;;;9.20;99.90;;;;;;4978323;28;20046;-62
2023/01/05 02:25:40;;;;;;;20.35;4.10;;;9.00;99.90;;;;;;4968402;28;20355;-62
2023/01/05 02:28:24;;;;;;;19.80;4.10;;;9.10;99.90;;;;;;4967987;28;20431;-62
2023/01/05 02:31:18;;;;;;;20.90;4.00;;;9.30;99.90;;;;;;4966342;28;20489;-62
2023/01/05 02:34:12;;;;;;;15.15;3.35;;;9.10;99.90;;;;;;4968470;28;20520;-62
2023/01/05 02:36:58;;;;;;;23.23;3.92;;;9.00;99.90;;;;;;4967839;28;20050;-62
2023/01/05 02:39:33;;;;;;;21.73;4.60;;;9.40;99.90;;;;;;4968160;28;20050;-62
2023/01/05 02:42:07;;;;;;;26.10;3.97;;;9.00;99.90;;;;;;4967642;28;20145;-62
2023/01/05 02:44:33;;;;;;;20.48;4.10;;;9.00;99.90;;;;;;4965671;28;20133;-62
2023/01/05 02:47:23;;;;;;;18.63;3.35;;;9.20;99.90;;;;;;4967938;28;20174;-62
2023/01/05 02:49:56;;;;;;;24.25;4.63;;;9.10;99.90;;;;;;4968432;28;20042;-62
2023/01/05 02:52:22;;;;;;;23.10;4.40;;;9.10;99.90;;;;;;4967875;28;20068;-62
2023/01/05 02:54:56;;;;;;;15.63;3.47;;;9.30;99.90;;;;;;4967667;28;20389;-62
2023/01/05 02:57:49;;;;;;;22.13;3.90;;;9.20;99.90;;;;;;4966402;28;20094;-61
2023/01/05 03:00:24;;;;;;;22.15;3.75;;;9.50;99.90;;;;;;4967097;28;20093;-62
2023/01/05 03:03:03;;;;;;;18.42;3.70;;;9.50;99.90;;;;;;4967597;28;20054;-62
2023/01/05 03:05:34;;;;;;;19.30;4.05;;;9.50;99.90;;;;;;4967072;28;20618;-62
2023/01/05 03:08:20;;;;;;;23.48;4.32;;;9.20;99.90;;;;;;4967540;28;20051;-62
2023/01/05 03:14:11;;;;;;;24.45;4.78;;;9.10;99.90;;;;;;4966792;28;20100;-62
2023/01/05 03:16:38;;;;;;;16.15;3.72;;;9.20;99.90;;;;;;4966015;28;20055;-62
2023/01/05 03:35:56;;;;;;;19.35;4.38;;;9.30;99.90;;;;;;4967169;28;20101;-62
2023/01/05 03:38:25;;;;;;;22.27;3.92;;;9.10;99.90;;;;;;4967113;28;20070;-62
2023/01/05 03:40:54;;;;;;;18.35;3.65;;;9.10;99.90;;;;;;4967255;28;20409;-62
2023/01/05 03:43:21;;;;;;;22.85;4.15;;;9.30;99.90;;;;;;4966893;28;20521;-61
2023/01/05 03:45:56;;;;;;;23.45;4.32;;;9.40;99.90;;;;;;4966052;28;20042;-60
2023/01/05 03:48:24;;;;;;;19.52;3.80;;;9.40;99.90;;;;;;4966580;28;20081;-62
2023/01/05 03:50:50;;;;;;;23.20;4.70;;;9.10;99.90;;;;;;4966917;28;20062;-62
2023/01/05 03:53:16;;;;;;;20.88;4.40;;;9.40;99.90;;;;;;4967244;28;20496;-62
2023/01/05 03:55:43;;;;;;;20.15;4.28;;;9.40;99.90;;;;;;4966728;28;20043;-62
2023/01/05 03:58:09;;;;;;;21.30;4.28;;;9.30;99.90;;;;;;4966954;28;20035;-62
2023/01/05 04:00:35;;;;;;;24.20;4.22;;;9.20;99.90;;;;;;4965559;28;20386;-62
2023/01/05 04:03:01;;;;;;;19.63;4.75;;;9.00;99.90;;;;;;4966406;28;20523;-62
2023/01/05 04:05:26;;;;;;;22.75;4.78;;;9.30;99.90;;;;;;4965101;28;20058;-62
2023/01/05 04:07:52;;;;;;;15.80;4.22;;;9.10;99.90;;;;;;4966657;28;20038;-62
2023/01/05 04:10:18;;;;;;;24.38;5.07;;;9.10;99.90;;;;;;4981371;28;20090;-62
2023/01/05 04:12:45;;;;;;;18.92;3.67;;;9.30;99.90;;;;;;4966091;28;20465;-62
2023/01/05 04:15:11;;;;;;;18.90;3.67;;;9.00;99.90;;;;;;4965173;28;20406;-62
2023/01/05 04:17:36;;;;;;;20.30;4.50;;;9.30;99.90;;;;;;4965358;28;20031;-61
2023/01/05 04:20:04;;;;;;;19.80;3.85;;;8.90;99.90;;;;;;4967077;28;20069;-62
2023/01/05 04:22:31;;;;;;;24.15;4.88;;;9.30;99.90;;;;;;4975368;28;20170;-61
2023/01/05 04:24:56;;;;;;;26.80;4.32;;;8.80;99.90;;;;;;4966043;28;20043;-62
2023/01/05 04:27:22;;;;;;;24.92;5.28;;;9.10;99.90;;;;;;4966543;28;20049;-62
2023/01/05 04:29:47;;;;;;;26.27;4.88;;;9.30;99.90;;;;;;4966001;28;20039;-62
2023/01/05 04:32:13;;;;;;;20.58;4.75;;;9.30;99.90;;;;;;4980655;28;20129;-62
2023/01/05 04:34:39;;;;;;;23.25;4.45;;;8.90;99.90;;;;;;4965393;28;20105;-62
2023/01/05 04:37:04;;;;;;;18.23;4.05;;;9.00;99.90;;;;;;4965725;28;20038;-62
2023/01/05 04:39:30;;;;;;;20.02;4.25;;;8.90;99.90;;;;;;4965005;28;20051;-62
2023/01/05 04:41:56;;;;;;;26.23;4.82;;;9.00;99.90;;;;;;4980521;28;20154;-62
2023/01/05 04:44:21;;;;;;;21.35;3.70;;;9.10;99.90;;;;;;4965021;28;20051;-62
2023/01/05 04:46:47;;;;;;;23.90;4.03;;;9.00;99.90;;;;;;4965108;28;20039;-59
2023/01/05 04:49:13;;;;;;;19.75;3.72;;;9.10;99.90;;;;;;4965652;28;20067;-60
2023/01/05 04:51:38;;;;;;;24.45;4.72;;;9.30;99.90;;;;;;4965038;28;20047;-62
2023/01/05 04:54:04;;;;;;;22.15;3.97;;;9.30;99.90;;;;;;4965050;28;20049;-62
2023/01/05 04:56:30;;;;;;;25.30;4.45;;;9.30;99.90;;;;;;4965275;28;20636;-62
2023/01/05 04:58:55;;;;;;;21.83;4.72;;;9.00;99.90;;;;;;4964319;28;20106;-62
2023/01/05 05:01:21;;;;;;;20.67;4.30;;;9.00;99.90;;;;;;4965656;28;20061;-62
2023/01/05 05:03:46;;;;;;;22.17;4.15;;;9.00;99.90;;;;;;4965475;28;20781;-62
2023/01/05 05:06:12;;;;;;;16.70;3.85;;;9.40;99.90;;;;;;4965139;28;20541;-62
2023/01/05 05:08:38;;;;;;;22.13;4.30;;;9.30;99.90;;;;;;4963432;28;20110;-62
2023/01/05 05:11:04;;;;;;;20.45;4.05;;;9.00;99.90;;;;;;4964920;28;20054;-61
2023/01/05 05:13:30;;;;;;;19.25;3.92;;;9.20;99.90;;;;;;4998706;28;20073;-63
2023/01/05 05:15:55;;;;;;;22.10;3.85;;;9.50;99.90;;;;;;5002306;28;20046;-62
2023/01/05 05:18:21;;;;;;;20.05;4.13;;;9.50;99.90;;;;;;5004352;28;20038;-62
2023/01/05 05:20:50;;;;;;;17.85;4.03;;;9.40;99.90;;;;;;4988151;28;20050;-62
2023/01/05 05:23:17;;;;;;;15.20;3.10;;;9.30;99.90;;;;;;4973313;28;20051;-62
2023/01/05 05:25:43;;;;;;;15.10;3.53;;;9.20;99.90;;;;;;4964826;28;20500;-62
2023/01/05 05:28:08;;;;;;;23.55;4.55;;;9.50;99.90;;;;;;4964651;28;20043;-62
2023/01/05 05:30:36;;;;;;;22.98;4.20;;;9.50;99.90;;;;;;4963872;28;20062;-62
2023/01/05 05:33:02;;;;;;;21.55;4.55;;;9.30;99.90;;;;;;4964677;28;20565;-62
2023/01/05 05:35:28;;;;;;;23.20;4.30;;;9.50;99.90;;;;;;4965062;28;20074;-62
2023/01/05 05:37:53;;;;;;;21.35;4.18;;;9.30;99.90;;;;;;4965764;28;20517;-61
2023/01/05 05:40:19;;;;;;;14.73;3.75;;;9.30;99.90;;;;;;4964775;28;20074;-62
2023/01/05 05:42:45;;;;;;;15.32;3.60;;;9.20;99.90;;;;;;4964330;28;20089;-62
2023/01/05 05:45:10;;;;;;;17.75;3.53;;;9.30;99.90;;;;;;4963499;28;20039;-62
2023/01/05 05:47:36;;;;;;;18.88;3.33;;;9.30;99.90;;;;;;4964400;28;20465;-62
2023/01/05 05:50:02;;;;;;;18.05;3.80;;;9.40;99.90;;;;;;4965982;28;20042;-62
2023/01/05 05:52:27;;;;;;;16.42;3.60;;;9.50;99.90;;;;;;4967839;28;20050;-61
2023/01/05 05:54:53;;;;;;;18.23;4.05;;;9.50;99.90;;;;;;4968703;28;20042;-62
2023/01/05 05:57:19;;;;;;;22.35;4.10;;;9.50;99.90;;;;;;4968982;28;20649;-62
2023/01/05 05:59:44;;;;;;;18.55;3.92;;;9.40;99.90;;;;;;4967474;28;20042;-62
2023/01/05 06:02:10;;;;;;;22.35;4.03;;;9.40;99.90;;;;;;4969418;28;20401;-62
2023/01/05 06:04:36;;;;;;;18.90;3.88;;;9.40;99.90;;;;;;4969088;28;20605;-62
2023/01/05 06:07:01;;;;;;;19.85;3.67;;;9.40;99.90;;;;;;4968825;28;20740;-62
2023/01/05 06:09:27;;;;;;;22.08;3.90;;;9.10;99.90;;;;;;4969667;28;20681;-63
2023/01/05 06:11:52;;;;;;;19.10;4.00;;;9.20;99.90;;;;;;4968645;28;20059;-62
2023/01/05 06:14:18;;;;;;;20.23;3.85;;;9.40;99.90;;;;;;4968129;28;20109;-64
2023/01/05 06:16:44;;;;;;;18.85;3.60;;;9.10;99.90;;;;;;4967647;28;20043;-62
2023/01/05 06:19:10;;;;;;;20.40;4.30;;;9.40;99.90;;;;;;4968546;28;20067;-62
2023/01/05 06:21:36;;;;;;;17.90;4.13;;;9.30;99.90;;;;;;4977893;28;20069;-63
2023/01/05 06:24:02;;;;;;;17.73;3.60;;;9.30;99.90;;;;;;4969306;28;20405;-63
2023/01/05 06:26:28;;;;;;;19.45;3.50;;;9.20;99.90;;;;;;4967457;28;20429;-62
2023/01/05 06:28:53;;;;;;;24.88;4.47;;;9.40;99.90;;;;;;4967152;28;20045;-62
2023/01/05 06:31:19;;;;;;;16.52;3.20;;;9.10;99.90;;;;;;4969102;28;20070;-63
2023/01/05 06:33:45;;;;;;;19.98;4.38;;;9.10;99.90;;;;;;4968029;28;20171;-62
2023/01/05 06:36:10;;;;;;;19.73;4.03;;;9.00;99.90;;;;;;4968260;28;20042;-60
2023/01/05 06:38:36;;;;;;;20.23;4.85;;;9.00;99.90;;;;;;4967547;28;20062;-62
2023/01/05 06:41:02;;;;;;;18.23;3.67;;;9.40;99.90;;;;;;4967167;28;20050;-62
2023/01/05 06:43:27;;;;;;;18.52;4.43;;;9.30;99.90;;;;;;4967943;28;20838;-62
2023/01/05 06:45:53;;;;;;;22.80;4.20;;;9.20;99.90;;;;;;4967165;28;20054;-62
2023/01/05 06:48:19;;;;;;;21.25;3.95;;;9.40;99.90;;;;;;4967984;28;20049;-62
2023/01/05 06:50:44;;;;;;;15.95;3.95;;;9.00;99.90;;;;;;4967014;28;20098;-62
2023/01/05 06:53:10;;;;;;;18.52;3.45;;;9.10;99.90;;;;;;4967578;28;20055;-62
2023/01/05 06:55:36;;;;;;;18.45;2.90;;;9.40;99.90;;;;;;4997293;28;20046;-62
2023/01/05 06:58:01;;;;;;;14.63;3.35;;;9.40;99.90;;;;;;5005466;28;20046;-62
2023/01/05 07:00:27;;;;;;;11.20;3.08;;;9.10;99.90;;;;;;5005387;28;20512;-62
2023/01/05 07:02:53;;;;;;;15.10;3.45;;;9.20;99.90;;;;;;5007042;28;20105;-62
2023/01/05 07:05:18;;;;;;;14.40;3.55;;;9.30;99.90;;;;;;5006803;28;20042;-62
2023/01/05 07:07:44;;;;;;;22.05;4.03;;;8.90;99.90;;;;;;5005536;28;20042;-63
2023/01/05 07:10:10;;;;;;;19.60;3.65;;;9.00;99.90;;;;;;5006376;28;20073;-60
2023/01/05 07:12:36;;;;;;;20.95;4.28;;;9.00;99.90;;;;;;5006400;28;20477;-62
2023/01/05 07:15:01;;;;;;;22.38;4.22;;;8.90;99.90;;;;;;5005239;28;20677;-62
2023/01/05 07:17:27;;;;;;;23.13;4.28;;;8.90;99.90;;;;;;5006844;28;20038;-62
2023/01/05 07:19:53;;;;;;;18.95;3.95;;;9.20;99.90;;;;;;5003973;28;20052;-63
2023/01/05 07:22:18;;;;;;;23.27;4.32;;;9.00;99.90;;;;;;4978305;28;20511;-62
2023/01/05 07:24:44;;;;;;;20.65;4.47;;;9.10;99.90;;;;;;4966391;28;20049;-62
2023/01/05 07:27:10;;;;;;;19.42;4.18;;;8.80;99.90;;;;;;4966419;28;20037;-62
2023/01/05 07:29:35;;;;;;;21.50;4.30;;;9.10;99.90;;;;;;4966718;28;20521;-62
2023/01/05 07:32:01;;;;;;;22.33;4.43;;;9.30;99.90;;;;;;4966946;28;20054;-62
2023/01/05 07:34:27;;;;;;;22.63;4.43;;;8.70;99.90;;;;;;4967002;28;20498;-62
2023/01/05 07:36:52;;;;;;;25.90;5.40;;;9.00;99.90;;;;;;4966385;28;20154;-62
2023/01/05 07:39:18;;;;;;;18.10;4.57;;;8.80;99.90;;;;;;4966691;28;20042;-62
2023/01/05 07:41:44;;;;;;;21.77;4.72;;;9.00;99.90;;;;;;4966708;28;20141;-62
2023/01/05 07:44:10;;;;;;;24.65;4.82;;;8.90;99.90;;;;;;4965792;28;20119;-62
2023/01/05 07:46:35;;;;;;;26.33;5.03;;;9.10;99.90;;;;;;4966746;28;20508;-62
2023/01/05 07:49:01;;;;;;;25.30;5.60;;;9.20;99.90;;;;;;4967102;28;20075;-62
2023/01/05 07:51:27;;;;;;;26.05;4.60;;;9.10;99.90;;;;;;4966640;28;20086;-62
2023/01/05 07:53:54;;;;;;;21.95;4.78;;;8.70;99.90;;;;;;4966775;28;20508;-62
2023/01/05 07:56:20;;;;;;;21.42;4.65;;;9.00;99.90;;;;;;4981299;28;20050;-62
2023/01/05 07:58:45;;;;;;;20.63;4.75;;;9.00;99.90;;;;;;4965853;28;20054;-63
2023/01/05 08:01:12;;;;;;;19.10;4.53;;;9.10;99.90;;;;;;4967107;28;20050;-62
2023/01/05 08:03:38;;;;;;;22.38;4.10;;;9.00;99.90;;;;;;4967090;28;20038;-62
2023/01/05 08:06:10;;;;;;;22.38;4.25;;;8.80;99.90;;;;;;4967796;28;20138;-62
2023/01/05 08:08:36;;;;;;;20.25;3.97;;;9.20;99.90;;;;;;4985700;28;20125;-62
2023/01/05 08:11:06;;;;;;;18.73;4.38;;;9.30;99.90;;;;;;4985887;28;20141;-63
2023/01/05 08:16:16;;;;;;;17.65;4.10;;;9.00;99.90;;;;;;4986120;28;20457;-63
2023/01/05 08:18:42;;;;;;;25.08;4.95;;;8.90;99.90;;;;;;4985527;28;20050;-63
2023/01/05 08:21:08;;;;;;;22.13;4.03;;;9.00;99.90;;;;;;4983224;28;20050;-62
2023/01/05 08:23:35;;;;;;;19.55;4.10;;;9.20;99.90;;;;;;4980813;28;20050;-62
2023/01/05 08:26:10;;;;;;;18.35;3.78;;;9.20;99.90;;;;;;4985532;28;20054;-62
2023/01/05 08:28:37;;;;;;;15.48;3.85;;;9.00;99.90;;;;;;4985411;28;20035;-62
2023/01/05 08:31:09;;;;;;;19.52;3.50;;;9.30;99.90;;;;;;4986211;28;20385;-63
2023/01/05 08:33:35;;;;;;;12.77;2.97;;;9.20;99.90;;;;;;4985771;28;20657;-61
2023/01/05 08:36:01;;;;;;;18.88;3.45;;;9.20;99.90;;;;;;4985560;28;20104;-62
2023/01/05 08:38:26;;;;;;;18.58;3.45;;;9.10;99.90;;;;;;4986050;28;20057;-63
2023/01/05 08:40:52;;;;;;;18.08;3.42;;;9.20;99.90;;;;;;4985507;28;20444;-62
2023/01/05 08:43:18;;;;;;;13.52;2.90;;;9.30;99.90;;;;;;4983554;28;20038;-63
2023/01/05 08:45:49;;;;;;;15.90;3.22;;;9.30;99.90;;;;;;4985160;28;20137;-62
2023/01/05 08:48:15;;;;;;;22.27;3.90;;;9.30;99.90;;;;;;4985299;28;20064;-62
2023/01/05 08:50:41;;;;;;;16.35;3.33;;;8.90;99.90;;;;;;4985452;28;20120;-63
2023/01/05 08:53:06;;;;;;;20.65;4.10;;;9.30;99.90;;;;;;4985941;28;20039;-63
2023/01/05 08:55:32;;;;;;;19.08;3.53;;;9.00;99.90;;;;;;4985807;28;20050;-62
2023/01/05 08:57:58;;;;;;;21.98;3.40;;;9.20;99.90;;;;;;4985349;28;20042;-62
2023/01/05 09:00:23;;;;;;;16.77;3.92;;;9.30;99.90;;;;;;4983657;28;20104;-62
2023/01/05 09:02:49;;;;;;;18.90;3.40;;;9.00;99.90;;;;;;4985183;28;20038;-63
2023/01/05 09:05:15;;;;;;;16.73;3.60;;;8.90;99.90;;;;;;4985565;28;20046;-62
2023/01/05 09:07:41;;;;;;;18.67;3.53;;;9.20;99.90;;;;;;4984633;28;20045;-62
2023/01/05 09:10:07;;;;;;;16.95;4.20;;;8.70;99.90;;;;;;4985483;28;20038;-62
2023/01/05 09:12:37;;;;;;;14.80;3.10;;;9.10;99.90;;;;;;4984806;28;20122;-62
2023/01/05 09:15:04;;;;;;;13.25;2.83;;;9.10;99.90;;;;;;4984109;28;20050;-62
2023/01/05 09:17:30;;;;;;;15.57;3.13;;;9.00;99.90;;;;;;4984824;28;20401;-62
2023/01/05 09:19:56;;;;;;;13.40;2.22;;;8.50;99.90;;;;;;4983905;28;20077;-63
2023/01/05 09:22:21;;;;;;;12.45;3.17;;;8.70;99.90;;;;;;4976304;28;20042;-62
2023/01/05 09:24:47;;;;;;;13.82;2.80;;;8.70;99.90;;;;;;4964762;28;20043;-63
2023/01/05 09:27:13;;;;;;;17.30;3.63;;;8.80;99.90;;;;;;4965395;28;20108;-63
2023/01/05 09:29:38;;;;;;;17.58;2.95;;;9.00;99.90;;;;;;4979898;28;20054;-62
2023/01/05 09:32:05;;;;;;;14.68;2.83;;;8.50;99.90;;;;;;4964682;28;20506;-62
2023/01/05 09:34:30;;;;;;;13.38;2.30;;;8.60;99.90;;;;;;4980428;28;20140;-63
2023/01/05 09:36:56;;;;;;;11.95;2.17;;;8.60;99.90;;;;;;4965733;28;20177;-63
2023/01/05 09:39:22;;;;;;;17.75;3.58;;;9.00;99.90;;;;;;4963996;28;20540;-63
2023/01/05 09:41:57;;;;;;;11.63;2.70;;;8.70;99.90;;;;;;4964787;28;20689;-63
2023/01/05 09:44:30;;;;;;;15.77;2.88;;;8.40;99.90;;;;;;4979604;28;20065;-61
2023/01/05 09:47:02;;;;;;;16.50;3.17;;;8.90;99.90;;;;;;4964902;28;20077;-61
2023/01/05 09:49:28;;;;;;;17.23;3.13;;;8.50;99.90;;;;;;4980320;28;20054;-61
2023/01/05 09:51:58;;;;;;;11.82;2.40;;;8.50;99.90;;;;;;4965414;28;20125;-61
2023/01/05 09:54:27;;;;;;;13.38;3.00;;;8.50;99.90;;;;;;4964842;28;20051;-61
2023/01/05 09:56:54;;;;;;;18.33;3.17;;;8.60;99.90;;;;;;4965496;28;20046;-61
2023/01/05 09:59:29;;;;;;;15.73;3.00;;;9.00;99.90;;;;;;4964931;28;20077;-61
2023/01/05 10:02:00;;;;;;;22.33;3.28;;;9.00;99.90;;;;;;4965152;28;20521;-61
2023/01/05 10:04:30;;;;;;;15.35;3.53;;;8.60;99.90;;;;;;4965581;28;20625;-61
2023/01/05 10:07:06;;;;;;;14.60;3.03;;;9.10;99.90;;;;;;4964439;28;20375;-60
2023/01/05 10:09:37;;;;;;;19.98;3.65;;;8.60;99.90;;;;;;4965150;28;20378;-61
2023/01/05 10:15:08;;;;;;;16.13;3.08;;;9.10;99.90;;;;;;4964505;28;20054;-61
2023/01/05 10:17:38;;;;;;;18.27;3.38;;;9.00;99.90;;;;;;4965548;28;20043;-60
2023/01/05 10:20:17;;;;;;;13.90;3.22;;;8.70;99.90;;;;;;4965637;28;20473;-60
2023/01/05 10:23:12;;;;;;;20.08;3.53;;;9.10;99.90;;;;;;4973618;28;20042;-60
2023/01/05 10:25:46;;;;;;;22.08;3.78;;;9.10;99.90;;;;;;4963977;28;20039;-60
2023/01/05 10:28:24;;;;;;;15.98;3.15;;;9.10;99.90;;;;;;4964510;28;20046;-60
2023/01/05 10:31:01;;;;;;;14.55;2.78;;;8.70;99.90;;;;;;4963805;28;20974;-60
2023/01/05 10:33:37;;;;;;;14.25;2.97;;;8.70;99.90;;;;;;4965149;28;20490;-61
2023/01/05 10:36:27;;;;;;;13.55;2.22;;;9.00;99.90;;;;;;4964897;28;20690;-60
2023/01/05 10:39:15;;;;;;;11.30;2.50;;;9.10;99.90;;;;;;4966818;28;20398;-60
2023/01/05 10:41:54;;;;;;;14.75;2.60;;;8.90;99.90;;;;;;4967490;28;20130;-60
2023/01/05 10:44:20;;;;;;;11.32;2.55;;;8.90;99.90;;;;;;4967525;28;20047;-61
2023/01/05 10:46:47;;;;;;;12.90;2.38;;;9.40;99.90;;;;;;4967620;28;20410;-60
2023/01/05 10:49:24;;;;;;;14.50;2.28;;;9.90;99.90;;;;;;4968507;28;20469;-60
2023/01/05 10:51:51;;;;;;;8.80;2.40;;;10.50;99.90;;;;;;4967391;28;20055;-59
2023/01/05 10:54:36;;;;;;;9.43;1.90;;;10.90;99.90;;;;;;4968355;28;20223;-60
2023/01/05 10:57:27;;;;;;;7.78;1.95;;;10.60;99.90;;;;;;4966661;28;20059;-61
2023/01/05 11:00:08;;;;;;;11.43;2.25;;;10.30;99.90;;;;;;4966733;28;20046;-60
2023/01/05 11:03:02;;;;;;;12.80;1.75;;;9.90;99.90;;;;;;4967498;28;20150;-60
2023/01/05 11:05:42;;;;;;;9.00;1.70;;;9.70;99.90;;;;;;4967230;28;20743;-60
2023/01/05 11:08:20;;;;;;;7.75;1.75;;;9.50;99.90;;;;;;4968036;28;20521;-59
2023/01/05 11:10:53;;;;;;;13.77;2.20;;;9.60;99.90;;;;;;4967594;28;20047;-62
2023/01/05 11:13:30;;;;;;;6.65;1.30;;;9.50;99.90;;;;;;4977775;28;20608;-60
2023/01/05 11:16:06;;;;;;;10.27;1.80;;;9.20;99.90;;;;;;5006743;28;20049;-60
2023/01/05 11:18:34;;;;;;;9.80;2.60;;;9.40;99.90;;;;;;5006044;28;20091;-60
2023/01/05 11:21:12;;;;;;;11.68;2.20;;;9.20;99.90;;;;;;4989751;28;20564;-60
2023/01/05 11:23:43;;;;;;;9.45;1.77;;;9.30;99.90;;;;;;4971012;28;20055;-60
2023/01/05 11:26:18;;;;;;;12.65;2.17;;;9.30;99.90;;;;;;4965792;28;20438;-60
2023/01/05 11:29:01;;;;;;;12.68;2.10;;;9.40;99.90;;;;;;4965973;28;20047;-60
2023/01/05 11:31:34;;;;;;;10.82;1.92;;;9.50;99.90;;;;;;4967090;28;20047;-60
2023/01/05 11:34:15;;;;;;;16.40;2.63;;;9.30;99.90;;;;;;4967410;28;20050;-59
2023/01/05 11:36:42;;;;;;;13.63;2.33;;;9.30;99.90;;;;;;4967204;28;20086;-61
2023/01/05 11:39:23;;;;;;;10.98;2.38;;;9.20;99.90;;;;;;4965702;28;20085;-61
2023/01/05 11:41:49;;;;;;;11.05;2.53;;;9.50;99.90;;;;;;4966911;28;20039;-61
2023/01/05 11:44:22;;;;;;;11.95;2.53;;;9.50;99.90;;;;;;4966255;28;20046;-60
2023/01/05 11:46:48;;;;;;;14.55;2.78;;;9.30;99.90;;;;;;4966247;28;20047;-61
2023/01/05 11:49:18;;;;;;;12.02;2.20;;;9.20;99.90;;;;;;4966392;28;20760;-61
2023/01/05 11:51:43;;;;;;;15.50;2.78;;;9.30;99.90;;;;;;4966659;28;20050;-60
2023/01/05 11:54:35;;;;;;;15.57;2.88;;;9.40;99.90;;;;;;4966027;28;20090;-60
2023/01/05 11:57:21;;;;;;;12.18;2.28;;;9.40;99.90;;;;;;4964791;28;20050;-60
2023/01/05 11:59:49;;;;;;;11.07;2.20;;;9.40;99.90;;;;;;4965748;28;20446;-60
2023/01/05 12:02:38;;;;;;;8.10;2.00;;;9.30;99.90;;;;;;4964593;28;20047;-61
2023/01/05 12:05:37;;;;;;;14.57;2.60;;;9.60;99.90;;;;;;4966025;28;20402;-60
2023/01/05 12:08:13;;;;;;;12.60;1.92;;;9.40;99.90;;;;;;4945346;28;20055;-62
2023/01/05 12:10:44;;;;;;;10.43;2.05;;;9.30;99.90;;;;;;4965594;28;20042;-62
2023/01/05 12:13:37;;;;;;;11.95;2.50;;;9.40;99.90;;;;;;4965849;28;20047;-64
2023/01/05 12:16:34;;;;;;;10.68;2.22;;;9.60;99.90;;;;;;4966646;28;20178;-64
2023/01/05 12:19:38;;;;;;;9.75;2.30;;;9.30;99.90;;;;;;4966359;28;20042;-64
2023/01/05 12:22:41;;;;;;;12.93;1.95;;;9.20;99.90;;;;;;4958580;28;20058;-64
2023/01/05 12:25:26;;;;;;;9.98;2.30;;;9.50;99.90;;;;;;4965020;28;20058;-61
2023/01/05 12:28:17;;;;;;;13.87;2.50;;;9.40;99.90;;;;;;4980286;28;20405;-64
2023/01/05 12:31:02;;;;;;;12.25;2.47;;;9.10;99.90;;;;;;4965994;28;20082;-64
2023/01/05 12:33:33;;;;;;;9.93;2.13;;;9.40;99.90;;;;;;4966725;28;20043;-62
2023/01/05 12:36:08;;;;;;;12.40;2.50;;;9.30;99.90;;;;;;4965844;28;20054;-63
2023/01/05 12:39:16;;;;;;;13.05;2.88;;;9.30;99.90;;;;;;4966575;28;20039;-63
2023/01/05 12:42:16;;;;;;;13.32;3.20;;;9.50;99.90;;;;;;4965993;28;20101;-63
2023/01/05 12:45:06;;;;;;;17.05;2.72;;;9.10;99.90;;;;;;4979669;28;20050;-61
2023/01/05 12:47:54;;;;;;;14.13;2.80;;;9.20;99.90;;;;;;4981451;28;20569;-61
2023/01/05 12:50:30;;;;;;;15.90;3.47;;;9.70;99.90;;;;;;4985899;28;20034;-61
2023/01/05 12:53:36;;;;;;;9.52;2.28;;;9.70;99.90;;;;;;4984192;28;20049;-61
2023/01/05 12:56:31;;;;;;;12.82;2.70;;;9.70;99.90;;;;;;4971046;28;20444;-60
2023/01/05 12:59:29;;;;;;;12.65;2.38;;;9.70;99.90;;;;;;4983830;28;20061;-60
2023/01/05 13:02:21;;;;;;;13.23;2.75;;;9.60;99.90;;;;;;4985171;28;20057;-60
2023/01/05 13:04:54;;;;;;;12.27;2.38;;;9.40;99.90;;;;;;4984858;28;20050;-60
2023/01/05 13:07:44;;;;;;;13.40;2.72;;;9.40;99.90;;;;;;4985760;28;20872;-60
2023/01/05 13:10:25;;;;;;;9.73;3.03;;;9.50;99.90;;;;;;4985038;28;20038;-60
2023/01/05 13:13:09;;;;;;;11.27;2.20;;;9.80;99.90;;;;;;4983381;28;20109;-61
2023/01/05 13:15:40;;;;;;;13.75;2.55;;;9.70;99.90;;;;;;4985055;28;20485;-60
2023/01/05 13:18:14;;;;;;;11.80;2.00;;;9.70;99.90;;;;;;4985047;28;20050;-61
2023/01/05 13:20:49;;;;;;;13.95;2.65;;;9.80;99.90;;;;;;4979092;28;20047;-60
2023/01/05 13:23:32;;;;;;;;;;;9.60;99.90;;;;;;4977644;28;20417;-61
2023/01/05 13:26:14;;;;;;;12.38;2.10;;;9.70;99.90;;;;;;4983118;28;19936;-61
2023/01/05 13:28:40;;;;;;;10.63;2.15;;;9.80;99.90;;;;;;4984521;28;20042;-61
2023/01/05 13:31:40;;;;;;;13.80;2.70;;;9.50;99.90;;;;;;4985177;28;20169;-60
2023/01/05 13:34:16;;;;;;;9.00;2.28;;;9.50;99.90;;;;;;4984479;28;20042;-60
2023/01/05 13:37:05;;;;;;;12.75;3.03;;;9.70;99.90;;;;;;4984448;28;20474;-61
2023/01/05 13:40:00;;;;;;;13.77;2.63;;;9.60;99.90;;;;;;4986905;28;20477;-61
2023/01/05 13:42:58;;;;;;;11.90;2.45;;;9.80;99.90;;;;;;4987192;28;20472;-61
2023/01/05 13:45:46;;;;;;;11.50;2.60;;;9.90;99.90;;;;;;5004545;28;20092;-61
2023/01/05 13:48:38;;;;;;;10.80;2.47;;;9.60;99.90;;;;;;4954032;28;20050;-61